sensor_id;sensor_type;location;lat;lon;timestamp;pressure;altitude;pressure_sealevel;temperature;humidity
19023;BME280;35226;48.606;8.858;2023-04-19T00:00:29;96729.78;;;9.93;100.00
19023;BME280;35226;48.606;8.858;2023-04-19T00:02:54;96733.41;;;9.90;100.00
19023;BME280;35226;48.606;8.858;2023-04-19T00:05:20;96733.59;;;9.99;100.00
19023;BME280;35226;48.606;8.858;2023-04-19T00:07:49;96732.47;;;9.97;100.00
19023;BME280;35226;48.606;8.858;2023-04-19T00:10:15;96731.34;;;9.94;100.00
19023;BME280;35226;48.606;8.858;2023-04-19T00:12:40;96724.19;;;9.97;100.00
19023;BME280;35226;48.606;8.858;2023-04-19T00:15:06;96732.28;;;9.88;100.00
19023;BME280;35226;48.606;8.858;2023-04-19T00:17:33;96730.38;;;9.85;100.00
19023;BME280;35226;48.606;8.858;2023-04-19T00:19:59;96735.84;;;9.88;100.00
19023;BME280;35226;48.606;8.858;2023-04-19T00:22:24;96726.69;;;9.91;100.00
19023;BME280;35226;48.606;8.858;2023-04-19T00:24:51;96727.97;;;9.87;100.00
19023;BME280;35226;48.606;8.858;2023-04-19T00:27:17;96720.13;;;9.85;100.00
19023;BME280;35226;48.606;8.858;2023-04-19T00:29:43;96721.06;;;9.79;100.00
19023;BME280;35226;48.606;8.858;2023-04-19T00:32:09;96717.38;;;9.85;100.00
19023;BME280;35226;48.606;8.858;2023-04-19T00:34:35;96715.81;;;9.84;100.00
19023;BME280;35226;48.606;8.858;2023-04-19T00:37:01;96716.16;;;9.86;100.00
19023;BME280;35226;48.606;8.858;2023-04-19T00:39:29;96711.91;;;9.82;100.00
19023;BME280;35226;48.606;8.858;2023-04-19T00:41:55;96713.81;;;9.85;100.00
19023;BME280;35226;48.606;8.858;2023-04-19T00:44:23;96711.88;;;9.65;100.00
19023;BME280;35226;48.606;8.858;2023-04-19T00:46:50;96712.00;;;9.78;100.00
19023;BME280;35226;48.606;8.858;2023-04-19T00:49:16;96708.78;;;9.80;100.00
19023;BME280;35226;48.606;8.858;2023-04-19T00:51:42;96708.97;;;9.73;100.00
19023;BME280;35226;48.606;8.858;2023-04-19T00:54:09;96707.44;;;9.52;100.00
19023;BME280;35226;48.606;8.858;2023-04-19T00:56:35;96702.75;;;9.69;100.00
19023;BME280;35226;48.606;8.858;2023-04-19T00:59:01;96697.16;;;9.72;100.00
19023;BME280;35226;48.606;8.858;2023-04-19T01:01:26;96695.16;;;9.73;100.00
19023;BME280;35226;48.606;8.858;2023-04-19T01:03:53;96711.53;;;9.63;100.00
19023;BME280;35226;48.606;8.858;2023-04-19T01:06:19;96700.06;;;9.65;100.00
19023;BME280;35226;48.606;8.858;2023-04-19T01:08:45;96705.53;;;9.69;100.00
19023;BME280;35226;48.606;8.858;2023-04-19T01:11:10;96697.25;;;9.69;100.00
19023;BME280;35226;48.606;8.858;2023-04-19T01:13:36;96696.47;;;9.68;100.00
19023;BME280;35226;48.606;8.858;2023-04-19T01:16:01;96690.25;;;9.64;100.00
19023;BME280;35226;48.606;8.858;2023-04-19T01:18:27;96690.88;;;9.52;100.00
19023;BME280;35226;48.606;8.858;2023-04-19T01:21:00;96696.97;;;9.63;100.00
19023;BME280;35226;48.606;8.858;2023-04-19T01:23:25;96691.78;;;9.65;100.00
19023;BME280;35226;48.606;8.858;2023-04-19T01:25:51;96694.97;;;9.63;100.00
19023;BME280;35226;48.606;8.858;2023-04-19T01:28:17;96688.06;;;9.55;100.00
19023;BME280;35226;48.606;8.858;2023-04-19T01:30:42;96684.72;;;9.64;100.00
19023;BME280;35226;48.606;8.858;2023-04-19T01:33:08;96681.78;;;9.55;100.00
19023;BME280;35226;48.606;8.858;2023-04-19T01:35:33;96686.44;;;9.58;100.00
19023;BME280;35226;48.606;8.858;2023-04-19T01:37:59;96681.34;;;9.56;100.00
19023;BME280;35226;48.606;8.858;2023-04-19T01:40:25;96674.69;;;9.54;100.00
19023;BME280;35226;48.606;8.858;2023-04-19T01:42:51;96674.84;;;9.47;100.00
19023;BME280;35226;48.606;8.858;2023-04-19T01:45:17;96677.09;;;9.52;100.00
19023;BME280;35226;48.606;8.858;2023-04-19T01:47:43;96672.88;;;9.47;100.00
19023;BME280;35226;48.606;8.858;2023-04-19T01:50:08;96667.72;;;9.49;100.00
19023;BME280;35226;48.606;8.858;2023-04-19T01:52:34;96664.44;;;9.54;100.00
19023;BME280;35226;48.606;8.858;2023-04-19T01:55:00;96666.50;;;9.50;100.00
19023;BME280;35226;48.606;8.858;2023-04-19T01:57:25;96667.72;;;9.49;100.00
19023;BME280;35226;48.606;8.858;2023-04-19T01:59:54;96664.19;;;9.49;100.00
19023;BME280;35226;48.606;8.858;2023-04-19T02:02:19;96658.66;;;9.49;100.00
19023;BME280;35226;48.606;8.858;2023-04-19T02:04:45;96659.56;;;9.42;100.00
19023;BME280;35226;48.606;8.858;2023-04-19T02:07:11;96649.63;;;9.48;100.00
19023;BME280;35226;48.606;8.858;2023-04-19T02:09:37;96652.69;;;9.50;100.00
19023;BME280;35226;48.606;8.858;2023-04-19T02:12:04;96655.81;;;9.52;100.00
19023;BME280;35226;48.606;8.858;2023-04-19T02:14:30;96661.31;;;9.52;100.00
19023;BME280;35226;48.606;8.858;2023-04-19T02:16:56;96653.56;;;9.47;100.00
19023;BME280;35226;48.606;8.858;2023-04-19T02:19:22;96652.25;;;9.36;100.00
19023;BME280;35226;48.606;8.858;2023-04-19T02:21:48;96646.31;;;9.37;100.00
19023;BME280;35226;48.606;8.858;2023-04-19T02:24:14;96645.19;;;9.51;100.00
19023;BME280;35226;48.606;8.858;2023-04-19T02:26:40;96643.31;;;9.48;100.00
19023;BME280;35226;48.606;8.858;2023-04-19T02:29:06;96646.56;;;9.43;100.00
19023;BME280;35226;48.606;8.858;2023-04-19T02:31:31;96644.44;;;9.50;100.00
19023;BME280;35226;48.606;8.858;2023-04-19T02:33:58;96644.94;;;9.45;100.00
19023;BME280;35226;48.606;8.858;2023-04-19T02:36:25;96638.66;;;9.45;100.00
19023;BME280;35226;48.606;8.858;2023-04-19T02:38:50;96637.44;;;9.46;100.00
19023;BME280;35226;48.606;8.858;2023-04-19T02:41:18;96648.66;;;9.39;100.00
19023;BME280;35226;48.606;8.858;2023-04-19T02:43:43;96648.78;;;9.32;100.00
19023;BME280;35226;48.606;8.858;2023-04-19T02:46:11;96636.31;;;9.43;100.00
19023;BME280;35226;48.606;8.858;2023-04-19T02:48:37;96627.66;;;9.25;100.00
19023;BME280;35226;48.606;8.858;2023-04-19T02:51:02;96630.13;;;9.39;100.00
19023;BME280;35226;48.606;8.858;2023-04-19T02:53:28;96621.13;;;9.35;100.00
19023;BME280;35226;48.606;8.858;2023-04-19T02:55:54;96626.22;;;9.37;100.00
19023;BME280;35226;48.606;8.858;2023-04-19T02:58:20;96620.72;;;9.37;100.00
19023;BME280;35226;48.606;8.858;2023-04-19T03:00:57;96632.09;;;9.39;100.00
19023;BME280;35226;48.606;8.858;2023-04-19T03:03:23;96623.47;;;9.37;100.00
19023;BME280;35226;48.606;8.858;2023-04-19T03:05:48;96626.13;;;9.40;100.00
19023;BME280;35226;48.606;8.858;2023-04-19T03:08:14;96628.81;;;9.44;100.00
19023;BME280;35226;48.606;8.858;2023-04-19T03:10:40;96622.69;;;9.36;100.00
19023;BME280;35226;48.606;8.858;2023-04-19T03:13:07;96628.44;;;9.25;100.00
19023;BME280;35226;48.606;8.858;2023-04-19T03:15:33;96633.94;;;9.25;100.00
19023;BME280;35226;48.606;8.858;2023-04-19T03:17:58;96628.94;;;9.20;100.00
19023;BME280;35226;48.606;8.858;2023-04-19T03:20:24;96629.16;;;9.30;100.00
19023;BME280;35226;48.606;8.858;2023-04-19T03:22:51;96640.72;;;9.21;100.00
19023;BME280;35226;48.606;8.858;2023-04-19T03:25:16;96638.41;;;9.19;100.00
19023;BME280;35226;48.606;8.858;2023-04-19T03:27:47;96634.00;;;9.22;100.00
19023;BME280;35226;48.606;8.858;2023-04-19T03:30:17;96641.09;;;9.23;100.00
19023;BME280;35226;48.606;8.858;2023-04-19T03:32:43;96637.34;;;9.13;100.00
19023;BME280;35226;48.606;8.858;2023-04-19T03:35:10;96626.84;;;9.08;100.00
19023;BME280;35226;48.606;8.858;2023-04-19T03:37:36;96627.31;;;9.03;100.00
19023;BME280;35226;48.606;8.858;2023-04-19T03:40:02;96628.03;;;9.07;100.00
19023;BME280;35226;48.606;8.858;2023-04-19T03:42:32;96626.22;;;9.01;100.00
19023;BME280;35226;48.606;8.858;2023-04-19T03:45:15;96628.41;;;9.09;100.00
19023;BME280;35226;48.606;8.858;2023-04-19T03:47:45;96632.34;;;9.08;100.00
19023;BME280;35226;48.606;8.858;2023-04-19T03:50:10;96620.81;;;8.94;100.00
19023;BME280;35226;48.606;8.858;2023-04-19T03:52:38;96623.59;;;8.94;100.00
19023;BME280;35226;48.606;8.858;2023-04-19T03:55:05;96619.28;;;8.93;100.00
19023;BME280;35226;48.606;8.858;2023-04-19T03:57:37;96617.66;;;8.95;100.00
19023;BME280;35226;48.606;8.858;2023-04-19T04:00:10;96611.78;;;8.93;100.00
19023;BME280;35226;48.606;8.858;2023-04-19T04:02:41;96610.72;;;8.87;100.00
19023;BME280;35226;48.606;8.858;2023-04-19T04:05:07;96618.16;;;8.90;100.00
19023;BME280;35226;48.606;8.858;2023-04-19T04:07:34;96610.31;;;8.88;100.00
19023;BME280;35226;48.606;8.858;2023-04-19T04:10:00;96619.72;;;8.91;100.00
19023;BME280;35226;48.606;8.858;2023-04-19T04:12:28;96617.22;;;8.97;100.00
19023;BME280;35226;48.606;8.858;2023-04-19T04:14:55;96617.28;;;8.93;100.00
19023;BME280;35226;48.606;8.858;2023-04-19T04:17:21;96616.88;;;8.95;100.00
19023;BME280;35226;48.606;8.858;2023-04-19T04:19:49;96616.47;;;8.76;100.00
19023;BME280;35226;48.606;8.858;2023-04-19T04:22:16;96617.03;;;8.68;100.00
19023;BME280;35226;48.606;8.858;2023-04-19T04:24:41;96609.38;;;8.75;100.00
19023;BME280;35226;48.606;8.858;2023-04-19T04:27:19;96616.03;;;8.78;100.00
19023;BME280;35226;48.606;8.858;2023-04-19T04:29:47;96622.88;;;8.70;100.00
19023;BME280;35226;48.606;8.858;2023-04-19T04:32:14;96624.88;;;8.69;100.00
19023;BME280;35226;48.606;8.858;2023-04-19T04:34:43;96621.91;;;8.80;100.00
19023;BME280;35226;48.606;8.858;2023-04-19T04:37:19;96623.66;;;8.70;100.00
19023;BME280;35226;48.606;8.858;2023-04-19T04:39:46;96625.63;;;8.50;100.00
19023;BME280;35226;48.606;8.858;2023-04-19T04:42:12;96620.13;;;8.70;100.00
19023;BME280;35226;48.606;8.858;2023-04-19T04:44:37;96624.66;;;8.60;100.00
19023;BME280;35226;48.606;8.858;2023-04-19T04:47:05;96628.19;;;8.61;100.00
19023;BME280;35226;48.606;8.858;2023-04-19T04:49:36;96627.69;;;8.66;100.00
19023;BME280;35226;48.606;8.858;2023-04-19T04:52:03;96621.59;;;8.54;100.00
19023;BME280;35226;48.606;8.858;2023-04-19T04:54:33;96630.44;;;8.66;100.00
19023;BME280;35226;48.606;8.858;2023-04-19T04:56:58;96624.97;;;8.62;100.00
19023;BME280;35226;48.606;8.858;2023-04-19T04:59:25;96628.09;;;8.64;100.00
19023;BME280;35226;48.606;8.858;2023-04-19T05:01:51;96620.75;;;8.58;100.00
19023;BME280;35226;48.606;8.858;2023-04-19T05:04:18;96625.97;;;8.52;100.00
19023;BME280;35226;48.606;8.858;2023-04-19T05:06:43;96626.53;;;8.63;100.00
19023;BME280;35226;48.606;8.858;2023-04-19T05:09:10;96621.47;;;8.62;100.00
19023;BME280;35226;48.606;8.858;2023-04-19T05:11:36;96625.06;;;8.59;100.00
19023;BME280;35226;48.606;8.858;2023-04-19T05:14:02;96627.00;;;8.62;100.00
19023;BME280;35226;48.606;8.858;2023-04-19T05:16:29;96623.31;;;8.68;100.00
19023;BME280;35226;48.606;8.858;2023-04-19T05:18:55;96629.75;;;8.62;100.00
19023;BME280;35226;48.606;8.858;2023-04-19T05:21:22;96630.16;;;8.60;100.00
19023;BME280;35226;48.606;8.858;2023-04-19T05:23:48;96622.00;;;8.53;100.00
19023;BME280;35226;48.606;8.858;2023-04-19T05:26:14;96631.91;;;8.50;100.00
19023;BME280;35226;48.606;8.858;2023-04-19T05:28:43;96633.75;;;8.77;100.00
19023;BME280;35226;48.606;8.858;2023-04-19T05:31:16;96636.13;;;8.55;100.00
19023;BME280;35226;48.606;8.858;2023-04-19T05:33:54;96639.84;;;8.68;100.00
19023;BME280;35226;48.606;8.858;2023-04-19T05:36:20;96638.06;;;8.78;100.00
19023;BME280;35226;48.606;8.858;2023-04-19T05:38:45;96640.41;;;8.79;100.00
19023;BME280;35226;48.606;8.858;2023-04-19T05:41:11;96631.00;;;8.77;100.00
19023;BME280;35226;48.606;8.858;2023-04-19T05:43:37;96628.66;;;8.75;100.00
19023;BME280;35226;48.606;8.858;2023-04-19T05:46:04;96638.34;;;8.64;100.00
19023;BME280;35226;48.606;8.858;2023-04-19T05:48:30;96635.53;;;8.67;100.00
19023;BME280;35226;48.606;8.858;2023-04-19T05:51:17;96638.63;;;8.69;100.00
19023;BME280;35226;48.606;8.858;2023-04-19T05:54:01;96642.50;;;8.72;100.00
19023;BME280;35226;48.606;8.858;2023-04-19T05:56:28;96636.25;;;8.71;100.00
19023;BME280;35226;48.606;8.858;2023-04-19T05:58:54;96636.16;;;8.75;100.00
19023;BME280;35226;48.606;8.858;2023-04-19T06:01:24;96636.25;;;8.71;100.00
19023;BME280;35226;48.606;8.858;2023-04-19T06:03:50;96640.47;;;8.76;100.00
19023;BME280;35226;48.606;8.858;2023-04-19T06:06:18;96641.66;;;8.75;100.00
19023;BME280;35226;48.606;8.858;2023-04-19T06:08:44;96643.59;;;8.78;100.00
19023;BME280;35226;48.606;8.858;2023-04-19T06:11:10;96646.25;;;8.81;100.00
19023;BME280;35226;48.606;8.858;2023-04-19T06:13:35;96650.34;;;8.93;100.00
19023;BME280;35226;48.606;8.858;2023-04-19T06:16:02;96655.25;;;8.85;100.00
19023;BME280;35226;48.606;8.858;2023-04-19T06:18:27;96650.66;;;8.79;100.00
19023;BME280;35226;48.606;8.858;2023-04-19T06:20:53;96659.03;;;8.72;100.00
19023;BME280;35226;48.606;8.858;2023-04-19T06:23:19;96662.31;;;8.86;100.00
19023;BME280;35226;48.606;8.858;2023-04-19T06:25:44;96655.53;;;8.91;100.00
19023;BME280;35226;48.606;8.858;2023-04-19T06:28:13;96659.13;;;8.68;100.00
19023;BME280;35226;48.606;8.858;2023-04-19T06:30:38;96658.19;;;8.75;100.00
19023;BME280;35226;48.606;8.858;2023-04-19T06:33:04;96659.56;;;8.86;100.00
19023;BME280;35226;48.606;8.858;2023-04-19T06:35:30;96659.34;;;8.97;100.00
19023;BME280;35226;48.606;8.858;2023-04-19T06:37:56;96650.66;;;8.99;100.00
19023;BME280;35226;48.606;8.858;2023-04-19T06:40:21;96656.22;;;8.95;100.00
19023;BME280;35226;48.606;8.858;2023-04-19T06:42:47;96651.75;;;9.01;100.00
19023;BME280;35226;48.606;8.858;2023-04-19T06:45:12;96657.28;;;9.21;100.00
19023;BME280;35226;48.606;8.858;2023-04-19T06:47:40;96649.94;;;9.14;100.00
19023;BME280;35226;48.606;8.858;2023-04-19T06:50:06;96657.06;;;9.12;100.00
19023;BME280;35226;48.606;8.858;2023-04-19T06:52:32;96655.44;;;9.14;100.00
19023;BME280;35226;48.606;8.858;2023-04-19T06:54:57;96660.47;;;9.19;100.00
19023;BME280;35226;48.606;8.858;2023-04-19T06:57:23;96653.25;;;9.25;100.00
19023;BME280;35226;48.606;8.858;2023-04-19T06:59:48;96646.53;;;9.26;100.00
19023;BME280;35226;48.606;8.858;2023-04-19T07:02:14;96648.28;;;9.37;100.00
19023;BME280;35226;48.606;8.858;2023-04-19T07:04:40;96646.78;;;9.32;100.00
19023;BME280;35226;48.606;8.858;2023-04-19T07:07:05;96643.13;;;9.39;100.00
19023;BME280;35226;48.606;8.858;2023-04-19T07:09:31;96641.47;;;9.41;100.00
19023;BME280;35226;48.606;8.858;2023-04-19T07:11:56;96634.31;;;9.27;100.00
19023;BME280;35226;48.606;8.858;2023-04-19T07:14:22;96647.34;;;9.43;100.00
19023;BME280;35226;48.606;8.858;2023-04-19T07:16:48;96645.09;;;9.38;100.00
19023;BME280;35226;48.606;8.858;2023-04-19T07:19:13;96636.16;;;9.50;100.00
19023;BME280;35226;48.606;8.858;2023-04-19T07:21:39;96639.69;;;9.51;100.00
19023;BME280;35226;48.606;8.858;2023-04-19T07:24:05;96637.22;;;9.56;100.00
19023;BME280;35226;48.606;8.858;2023-04-19T07:26:32;96630.63;;;9.50;100.00
19023;BME280;35226;48.606;8.858;2023-04-19T07:28:58;96630.69;;;9.67;100.00
19023;BME280;35226;48.606;8.858;2023-04-19T07:31:24;96635.50;;;9.62;100.00
19023;BME280;35226;48.606;8.858;2023-04-19T07:33:50;96636.28;;;9.63;100.00
19023;BME280;35226;48.606;8.858;2023-04-19T07:36:16;96637.03;;;9.63;100.00
19023;BME280;35226;48.606;8.858;2023-04-19T07:38:42;96627.50;;;9.68;100.00
19023;BME280;35226;48.606;8.858;2023-04-19T07:41:08;96626.63;;;9.71;100.00
19023;BME280;35226;48.606;8.858;2023-04-19T07:43:34;96627.81;;;9.70;100.00
19023;BME280;35226;48.606;8.858;2023-04-19T07:45:59;96632.41;;;9.77;100.00
19023;BME280;35226;48.606;8.858;2023-04-19T07:48:25;96624.28;;;9.70;100.00
19023;BME280;35226;48.606;8.858;2023-04-19T07:50:51;96623.09;;;9.71;100.00
19023;BME280;35226;48.606;8.858;2023-04-19T07:53:16;96628.69;;;9.67;100.00
19023;BME280;35226;48.606;8.858;2023-04-19T07:55:42;96632.41;;;9.77;100.00
19023;BME280;35226;48.606;8.858;2023-04-19T07:58:11;96629.66;;;9.93;100.00
19023;BME280;35226;48.606;8.858;2023-04-19T08:00:37;96618.25;;;9.91;100.00
19023;BME280;35226;48.606;8.858;2023-04-19T08:03:02;96623.97;;;10.00;100.00
19023;BME280;35226;48.606;8.858;2023-04-19T08:05:29;96621.72;;;9.95;100.00
19023;BME280;35226;48.606;8.858;2023-04-19T08:07:54;96616.72;;;10.06;100.00
19023;BME280;35226;48.606;8.858;2023-04-19T08:10:21;96620.81;;;10.18;100.00
19023;BME280;35226;48.606;8.858;2023-04-19T08:12:47;96618.97;;;10.27;100.00
19023;BME280;35226;48.606;8.858;2023-04-19T08:15:14;96617.94;;;10.37;100.00
19023;BME280;35226;48.606;8.858;2023-04-19T08:17:46;96615.31;;;10.47;100.00
19023;BME280;35226;48.606;8.858;2023-04-19T08:20:11;96608.81;;;10.53;100.00
19023;BME280;35226;48.606;8.858;2023-04-19T08:22:37;96606.25;;;10.46;100.00
19023;BME280;35226;48.606;8.858;2023-04-19T08:25:04;96610.81;;;10.53;100.00
19023;BME280;35226;48.606;8.858;2023-04-19T08:27:30;96607.69;;;10.67;100.00
19023;BME280;35226;48.606;8.858;2023-04-19T08:29:56;96607.34;;;10.65;100.00
19023;BME280;35226;48.606;8.858;2023-04-19T08:32:21;96610.66;;;10.72;100.00
19023;BME280;35226;48.606;8.858;2023-04-19T08:34:47;96605.72;;;10.80;100.00
19023;BME280;35226;48.606;8.858;2023-04-19T08:37:13;96603.06;;;10.77;100.00
19023;BME280;35226;48.606;8.858;2023-04-19T08:39:39;96603.78;;;10.93;100.00
19023;BME280;35226;48.606;8.858;2023-04-19T08:42:06;96606.66;;;11.02;100.00
19023;BME280;35226;48.606;8.858;2023-04-19T08:44:32;96606.75;;;10.99;100.00
19023;BME280;35226;48.606;8.858;2023-04-19T08:46:58;96609.78;;;11.17;100.00
19023;BME280;35226;48.606;8.858;2023-04-19T08:49:27;96605.16;;;11.14;100.00
19023;BME280;35226;48.606;8.858;2023-04-19T08:51:53;96599.63;;;11.14;100.00
19023;BME280;35226;48.606;8.858;2023-04-19T08:54:20;96599.09;;;11.32;100.00
19023;BME280;35226;48.606;8.858;2023-04-19T08:56:46;96594.69;;;11.34;100.00
19023;BME280;35226;48.606;8.858;2023-04-19T08:59:11;96606.38;;;11.38;100.00
19023;BME280;35226;48.606;8.858;2023-04-19T09:01:38;96601.09;;;11.44;100.00
19023;BME280;35226;48.606;8.858;2023-04-19T09:04:05;96597.13;;;11.45;100.00
19023;BME280;35226;48.606;8.858;2023-04-19T09:06:38;96594.66;;;11.47;100.00
19023;BME280;35226;48.606;8.858;2023-04-19T09:09:18;96593.56;;;11.32;100.00
19023;BME280;35226;48.606;8.858;2023-04-19T09:11:43;96596.22;;;11.35;100.00
19023;BME280;35226;48.606;8.858;2023-04-19T09:14:12;96590.81;;;11.44;100.00
19023;BME280;35226;48.606;8.858;2023-04-19T09:16:38;96582.19;;;11.55;100.00
19023;BME280;35226;48.606;8.858;2023-04-19T09:19:04;96581.63;;;11.73;100.00
19023;BME280;35226;48.606;8.858;2023-04-19T09:21:31;96589.03;;;11.63;100.00
19023;BME280;35226;48.606;8.858;2023-04-19T09:24:01;96575.19;;;11.89;100.00
19023;BME280;35226;48.606;8.858;2023-04-19T09:26:27;96581.06;;;11.78;100.00
19023;BME280;35226;48.606;8.858;2023-04-19T09:29:04;96575.88;;;11.93;100.00
19023;BME280;35226;48.606;8.858;2023-04-19T09:31:32;96576.22;;;11.82;100.00
19023;BME280;35226;48.606;8.858;2023-04-19T09:34:14;96574.75;;;11.65;100.00
19023;BME280;35226;48.606;8.858;2023-04-19T09:36:40;96577.28;;;12.10;100.00
19023;BME280;35226;48.606;8.858;2023-04-19T09:39:06;96568.66;;;11.95;100.00
19023;BME280;35226;48.606;8.858;2023-04-19T09:41:32;96560.84;;;12.15;100.00
19023;BME280;35226;48.606;8.858;2023-04-19T09:44:11;96560.91;;;12.37;100.00
19023;BME280;35226;48.606;8.858;2023-04-19T09:46:40;96555.19;;;12.53;100.00
19023;BME280;35226;48.606;8.858;2023-04-19T09:49:25;96550.63;;;12.59;100.00
19023;BME280;35226;48.606;8.858;2023-04-19T09:51:55;96550.78;;;12.65;100.00
19023;BME280;35226;48.606;8.858;2023-04-19T09:54:23;96543.97;;;12.79;100.00
19023;BME280;35226;48.606;8.858;2023-04-19T09:56:50;96542.03;;;12.88;100.00
19023;BME280;35226;48.606;8.858;2023-04-19T09:59:17;96544.81;;;12.88;100.00
19023;BME280;35226;48.606;8.858;2023-04-19T10:01:46;96539.81;;;13.05;100.00
19023;BME280;35226;48.606;8.858;2023-04-19T10:04:14;96531.38;;;13.09;100.00
19023;BME280;35226;48.606;8.858;2023-04-19T10:06:51;96533.28;;;12.90;100.00
19023;BME280;35226;48.606;8.858;2023-04-19T10:09:18;96521.25;;;12.93;100.00
19023;BME280;35226;48.606;8.858;2023-04-19T10:11:49;96530.34;;;13.15;100.00
19023;BME280;35226;48.606;8.858;2023-04-19T10:14:16;96527.53;;;13.37;100.00
19023;BME280;35226;48.606;8.858;2023-04-19T10:16:44;96519.78;;;13.01;100.00
19023;BME280;35226;48.606;8.858;2023-04-19T10:19:12;96523.72;;;12.91;100.00
19023;BME280;35226;48.606;8.858;2023-04-19T10:21:41;96524.66;;;13.19;100.00
19023;BME280;35226;48.606;8.858;2023-04-19T10:24:08;96517.78;;;13.32;100.00
19023;BME280;35226;48.606;8.858;2023-04-19T10:27:09;96516.34;;;13.19;100.00
19023;BME280;35226;48.606;8.858;2023-04-19T10:30:20;96515.31;;;13.75;100.00
19023;BME280;35226;48.606;8.858;2023-04-19T10:32:51;96509.63;;;13.87;100.00
19023;BME280;35226;48.606;8.858;2023-04-19T10:35:18;96506.88;;;14.05;100.00
19023;BME280;35226;48.606;8.858;2023-04-19T10:38:10;96504.41;;;14.07;100.00
19023;BME280;35226;48.606;8.858;2023-04-19T10:41:02;96504.28;;;14.38;100.00
19023;BME280;35226;48.606;8.858;2023-04-19T10:43:46;96507.06;;;14.29;100.00
19023;BME280;35226;48.606;8.858;2023-04-19T10:46:34;96503.38;;;14.41;100.00
19023;BME280;35226;48.606;8.858;2023-04-19T10:49:02;96496.88;;;14.35;100.00
19023;BME280;35226;48.606;8.858;2023-04-19T10:51:36;96493.16;;;14.38;100.00
19023;BME280;35226;48.606;8.858;2023-04-19T11:09:22;96473.56;;;13.38;100.00
19023;BME280;35226;48.606;8.858;2023-04-19T11:11:49;96475.47;;;13.50;100.00
19023;BME280;35226;48.606;8.858;2023-04-19T11:14:14;96474.66;;;13.41;100.00
19023;BME280;35226;48.606;8.858;2023-04-19T11:16:41;96471.63;;;13.66;100.00
19023;BME280;35226;48.606;8.858;2023-04-19T11:19:06;96474.94;;;13.33;100.00
19023;BME280;35226;48.606;8.858;2023-04-19T11:21:32;96464.63;;;13.43;100.00
19023;BME280;35226;48.606;8.858;2023-04-19T11:24:07;96462.53;;;13.75;100.00
19023;BME280;35226;48.606;8.858;2023-04-19T11:26:33;96463.03;;;13.91;100.00
19023;BME280;35226;48.606;8.858;2023-04-19T11:28:59;96458.56;;;13.85;100.00
19023;BME280;35226;48.606;8.858;2023-04-19T11:31:25;96455.47;;;13.83;100.00
19023;BME280;35226;48.606;8.858;2023-04-19T11:33:51;96461.50;;;13.99;100.00
19023;BME280;35226;48.606;8.858;2023-04-19T11:36:16;96461.09;;;13.43;100.00
19023;BME280;35226;48.606;8.858;2023-04-19T11:38:46;96452.09;;;13.97;100.00
19023;BME280;35226;48.606;8.858;2023-04-19T11:41:12;96458.06;;;13.68;100.00
19023;BME280;35226;48.606;8.858;2023-04-19T11:43:37;96452.41;;;13.90;100.00
19023;BME280;35226;48.606;8.858;2023-04-19T11:46:07;96445.44;;;13.76;100.00
19023;BME280;35226;48.606;8.858;2023-04-19T11:48:33;96442.31;;;13.65;100.00
19023;BME280;35226;48.606;8.858;2023-04-19T11:50:59;96444.97;;;13.87;100.00
19023;BME280;35226;48.606;8.858;2023-04-19T11:53:26;96438.63;;;13.59;100.00
19023;BME280;35226;48.606;8.858;2023-04-19T11:55:54;96438.56;;;13.31;100.00
19023;BME280;35226;48.606;8.858;2023-04-19T12:00:51;96444.00;;;13.53;100.00
19023;BME280;35226;48.606;8.858;2023-04-19T12:03:20;96444.00;;;13.53;100.00
19023;BME280;35226;48.606;8.858;2023-04-19T12:05:54;96443.94;;;13.26;100.00
19023;BME280;35226;48.606;8.858;2023-04-19T12:09:05;96441.03;;;13.39;100.00
19023;BME280;35226;48.606;8.858;2023-04-19T12:11:24;96442.44;;;13.52;100.00
19023;BME280;35226;48.606;8.858;2023-04-19T12:14:16;96432.88;;;13.44;100.00
19023;BME280;35226;48.606;8.858;2023-04-19T12:16:44;96433.63;;;13.36;100.00
19023;BME280;35226;48.606;8.858;2023-04-19T12:19:11;96431.94;;;13.38;100.00
19023;BME280;35226;48.606;8.858;2023-04-19T12:21:38;96431.50;;;13.40;100.00
19023;BME280;35226;48.606;8.858;2023-04-19T12:24:04;96430.63;;;13.79;100.00
19023;BME280;35226;48.606;8.858;2023-04-19T12:26:30;96422.28;;;13.61;100.00
19023;BME280;35226;48.606;8.858;2023-04-19T12:28:59;96424.88;;;13.46;100.00
19023;BME280;35226;48.606;8.858;2023-04-19T12:31:25;96427.38;;;13.71;100.00
19023;BME280;35226;48.606;8.858;2023-04-19T12:33:51;96425.22;;;14.03;100.00
19023;BME280;35226;48.606;8.858;2023-04-19T12:36:17;96433.09;;;13.68;100.00
19023;BME280;35226;48.606;8.858;2023-04-19T12:38:43;96431.09;;;13.68;100.00
19023;BME280;35226;48.606;8.858;2023-04-19T12:41:08;96427.06;;;13.51;100.00
19023;BME280;35226;48.606;8.858;2023-04-19T12:43:34;96440.13;;;13.02;100.00
19023;BME280;35226;48.606;8.858;2023-04-19T12:45:59;96433.41;;;12.81;100.00
19023;BME280;35226;48.606;8.858;2023-04-19T12:48:26;96432.75;;;12.77;100.00
19023;BME280;35226;48.606;8.858;2023-04-19T12:50:52;96444.03;;;12.51;100.00
19023;BME280;35226;48.606;8.858;2023-04-19T12:53:18;96436.25;;;12.68;100.00
19023;BME280;35226;48.606;8.858;2023-04-19T12:55:43;96437.94;;;12.66;100.00
19023;BME280;35226;48.606;8.858;2023-04-19T12:58:14;96440.41;;;12.42;100.00
19023;BME280;35226;48.606;8.858;2023-04-19T13:00:40;96433.19;;;12.44;100.00
19023;BME280;35226;48.606;8.858;2023-04-19T13:03:05;96440.84;;;12.62;100.00
19023;BME280;35226;48.606;8.858;2023-04-19T13:05:31;96436.94;;;12.50;100.00
19023;BME280;35226;48.606;8.858;2023-04-19T13:07:56;96439.25;;;12.52;100.00
19023;BME280;35226;48.606;8.858;2023-04-19T13:10:22;96425.41;;;12.08;100.00
19023;BME280;35226;48.606;8.858;2023-04-19T13:12:47;96428.38;;;12.14;100.00
19023;BME280;35226;48.606;8.858;2023-04-19T13:15:13;96422.31;;;11.84;100.00
19023;BME280;35226;48.606;8.858;2023-04-19T13:17:38;96428.47;;;11.89;100.00